Terminal Aerodrome Forecast
Issued by NWS

Home | Current Version | Previous Version | Text Only | Print | Product List | Glossary On
Versions: 1 2 3 4 5 6 7 8 9 10 11 12 13 14 15 16 17 18 19 20 21 22
000
FTUS46 KPDT 231700
TAFBDN
TAF
KBDN 231733Z 2318/2418 23014G21KT P6SM VCSH BKN050 OVC070
     FM232100 28016G24KT P6SM -SHRA BKN040 OVC060
     FM240300 25011KT P6SM -SHRA BKN040 OVC060
     FM240900 21011KT P6SM VCSH BKN050 BKN070
     FM241200 21014KT P6SM -SHRA BKN040 OVC060
     FM241700 23015G25KT P6SM VCSH BKN060=

USA.gov is the U.S. government's official web portal to all federal, state and local government web resources and services.